createdAt,value
2018-01-13T00:00:59.316Z,1024.2
2018-01-13T00:02:01.730Z,1024.2
2018-01-13T00:03:04.125Z,1024.1
2018-01-13T00:04:06.547Z,1024.1
2018-01-13T00:05:08.999Z,1024.1
2018-01-13T00:06:11.687Z,1024.2
2018-01-13T00:07:14.098Z,1024.2
2018-01-13T00:08:16.505Z,1024.2
2018-01-13T00:09:18.913Z,1024.1
2018-01-13T00:10:21.319Z,1024.2
2018-01-13T00:11:23.719Z,1024.1
2018-01-13T00:12:26.122Z,1024.1
2018-01-13T00:13:28.536Z,1024.1
2018-01-13T00:14:31.516Z,1024.1
2018-01-13T00:15:33.925Z,1024.1
2018-01-13T00:16:36.333Z,1024.1
2018-01-13T00:17:39.024Z,1024.1
2018-01-13T00:18:41.444Z,1024.1
2018-01-13T00:19:44.142Z,1024.1
2018-01-13T00:20:46.548Z,1024.1
2018-01-13T00:21:48.972Z,1024.1
2018-01-13T00:22:51.376Z,1024.1
2018-01-13T00:23:53.790Z,1024.1
2018-01-13T00:24:56.187Z,1024.1
2018-01-13T00:25:58.593Z,1024.1
2018-01-13T00:27:01.287Z,1024.1
2018-01-13T00:28:03.695Z,1024.1
2018-01-13T00:29:06.103Z,1024
2018-01-13T00:30:08.506Z,1024
2018-01-13T00:31:10.922Z,1024
2018-01-13T00:32:13.337Z,1024
2018-01-13T00:33:15.744Z,1024.1
2018-01-13T00:34:18.153Z,1024
2018-01-13T00:35:20.569Z,1024
2018-01-13T00:36:22.969Z,1024
2018-01-13T00:37:25.367Z,1024.1
2018-01-13T00:38:28.056Z,1024
2018-01-13T00:39:30.450Z,1024.1
2018-01-13T00:40:32.859Z,1024
2018-01-13T00:41:35.550Z,1024
2018-01-13T00:42:38.240Z,1024
2018-01-13T00:43:40.651Z,1024
2018-01-13T00:44:43.062Z,1024
2018-01-13T00:45:45.748Z,1024
2018-01-13T00:46:48.167Z,1024.1
2018-01-13T00:47:50.579Z,1024.1
2018-01-13T00:48:52.980Z,1024.1
2018-01-13T00:49:55.398Z,1024.1
2018-01-13T00:50:58.083Z,1024.1
2018-01-13T00:52:00.488Z,1024.1
2018-01-13T00:53:02.897Z,1024.1
2018-01-13T00:54:05.293Z,1024.1
2018-01-13T00:55:07.696Z,1024.1
2018-01-13T00:56:10.120Z,1024.1
2018-01-13T00:57:12.527Z,1024
2018-01-13T00:58:14.932Z,1024.1
2018-01-13T00:59:17.642Z,1024
2018-01-13T01:00:20.336Z,1024
2018-01-13T01:01:22.728Z,1024
2018-01-13T01:02:25.136Z,1024
2018-01-13T01:03:27.556Z,1024.1
2018-01-13T01:04:29.960Z,1024.1
2018-01-13T01:05:32.368Z,1024.1
2018-01-13T01:06:34.773Z,1024.1
2018-01-13T01:07:37.174Z,1024.1
2018-01-13T01:08:39.595Z,1024.1
2018-01-13T01:09:42.003Z,1024.1
2018-01-13T01:10:44.400Z,1024.1
2018-01-13T01:11:46.817Z,1024.1
2018-01-13T01:12:49.222Z,1024.1
2018-01-13T01:13:51.630Z,1024.1
2018-01-13T01:14:54.042Z,1024.1
2018-01-13T01:15:56.448Z,1024.1
2018-01-13T01:16:59.141Z,1024.1
2018-01-13T01:18:01.546Z,1024.1
2018-01-13T01:19:03.983Z,1024.1
2018-01-13T01:20:06.392Z,1024.2
2018-01-13T01:21:08.804Z,1024.2
2018-01-13T01:22:11.480Z,1024.1
2018-01-13T01:23:13.890Z,1024.2
2018-01-13T01:24:16.293Z,1024.2
2018-01-13T01:25:18.715Z,1024.2
2018-01-13T01:26:21.125Z,1024.2
2018-01-13T01:27:23.539Z,1024.2
2018-01-13T01:28:25.950Z,1024.2
2018-01-13T01:29:28.356Z,1024.2
2018-01-13T01:30:31.108Z,1024.2
2018-01-13T01:31:33.512Z,1024.3
2018-01-13T01:32:35.917Z,1024.2
2018-01-13T01:33:38.320Z,1024.3
2018-01-13T01:34:40.740Z,1024.3
2018-01-13T01:35:43.130Z,1024.3
2018-01-13T01:36:45.543Z,1024.3
2018-01-13T01:37:47.955Z,1024.3
2018-01-13T01:38:50.649Z,1024.3
2018-01-13T01:39:53.058Z,1024.3
2018-01-13T01:40:55.470Z,1024.3
2018-01-13T01:41:57.866Z,1024.3
2018-01-13T01:43:00.283Z,1024.3
2018-01-13T01:44:02.971Z,1024.3
2018-01-13T01:45:05.379Z,1024.3
2018-01-13T01:46:07.797Z,1024.3
2018-01-13T01:47:10.198Z,1024.3
2018-01-13T01:48:12.602Z,1024.3
2018-01-13T01:49:15.298Z,1024.3
2018-01-13T01:50:17.704Z,1024.3
2018-01-13T01:51:20.112Z,1024.3
2018-01-13T01:52:22.526Z,1024.4
2018-01-13T01:53:24.915Z,1024.4
2018-01-13T01:54:27.333Z,1024.4
2018-01-13T01:55:29.739Z,1024.3
2018-01-13T01:56:32.146Z,1024.3
2018-01-13T01:57:34.556Z,1024.3
2018-01-13T01:58:36.959Z,1024.3
2018-01-13T01:59:39.362Z,1024.3
2018-01-13T02:00:41.778Z,1024.3
2018-01-13T02:01:44.181Z,1024.3
2018-01-13T02:02:46.581Z,1024.3
2018-01-13T02:03:48.987Z,1024.3
2018-01-13T02:04:51.391Z,1024.3
2018-01-13T02:05:54.085Z,1024.3
2018-01-13T02:06:56.504Z,1024.3
2018-01-13T02:07:58.899Z,1024.3
2018-01-13T02:09:01.307Z,1024.3
2018-01-13T02:10:03.723Z,1024.3
2018-01-13T02:11:06.128Z,1024.3
2018-01-13T02:12:09.109Z,1024.3
2018-01-13T02:13:11.511Z,1024.3
2018-01-13T02:14:13.923Z,1024.3
2018-01-13T02:15:16.337Z,1024.2
2018-01-13T02:16:18.745Z,1024.2
2018-01-13T02:17:21.428Z,1024.2
2018-01-13T02:18:24.129Z,1024.2
2018-01-13T02:19:26.545Z,1024.2
2018-01-13T02:20:28.944Z,1024.2
2018-01-13T02:21:31.355Z,1024.2
2018-01-13T02:22:33.753Z,1024.2
2018-01-13T02:23:36.474Z,1024.2
2018-01-13T02:24:38.888Z,1024.3
2018-01-13T02:25:41.291Z,1024.3
2018-01-13T02:26:43.966Z,1024.3
2018-01-13T02:27:46.367Z,1024.3
2018-01-13T02:28:48.768Z,1024.3
2018-01-13T02:29:51.175Z,1024.3
2018-01-13T02:30:53.579Z,1024.3
2018-01-13T02:31:55.995Z,1024.3
2018-01-13T02:32:58.690Z,1024.3
2018-01-13T02:34:01.088Z,1024.3
2018-01-13T02:35:03.509Z,1024.3
2018-01-13T02:36:05.921Z,1024.3
2018-01-13T02:37:08.323Z,1024.3
2018-01-13T02:38:10.723Z,1024.4
2018-01-13T02:39:13.124Z,1024.3
2018-01-13T02:40:15.523Z,1024.3
2018-01-13T02:41:17.956Z,1024.3
2018-01-13T02:42:20.341Z,1024.3
2018-01-13T02:43:22.761Z,1024.3
2018-01-13T02:44:25.165Z,1024.3
2018-01-13T02:45:27.870Z,1024.3
2018-01-13T02:46:30.276Z,1024.3
2018-01-13T02:47:32.680Z,1024.3
2018-01-13T02:48:35.368Z,1024.3
2018-01-13T02:49:37.781Z,1024.3
2018-01-13T02:50:40.189Z,1024.3
2018-01-13T02:51:42.607Z,1024.3
2018-01-13T02:52:45.013Z,1024.3
2018-01-13T02:53:47.420Z,1024.2
2018-01-13T02:54:49.824Z,1024.2
2018-01-13T02:55:52.239Z,1024.2
2018-01-13T02:56:54.645Z,1024.2
2018-01-13T02:57:57.045Z,1024.2
2018-01-13T02:58:59.445Z,1024.2
2018-01-13T03:00:01.855Z,1024.1
2018-01-13T03:01:04.270Z,1024.2
2018-01-13T03:02:06.675Z,1024.2
2018-01-13T03:03:09.085Z,1024.2
2018-01-13T03:04:11.769Z,1024.2
2018-01-13T03:05:14.180Z,1024.1
2018-01-13T03:06:17.208Z,1024.1
2018-01-13T03:07:19.599Z,1024.1
2018-01-13T03:08:22.008Z,1024.1
2018-01-13T03:09:24.415Z,1024.2
2018-01-13T03:10:26.815Z,1024.1
2018-01-13T03:11:29.234Z,1024.2
2018-01-13T03:12:31.634Z,1024.1
2018-01-13T03:13:34.039Z,1024.1
2018-01-13T03:14:36.447Z,1024.1
2018-01-13T03:15:39.154Z,1024.1
2018-01-13T03:16:41.554Z,1024.1
2018-01-13T03:17:43.956Z,1024.1
2018-01-13T03:18:46.679Z,1024.1
2018-01-13T03:19:49.083Z,1024.1
2018-01-13T03:20:51.489Z,1024.1
2018-01-13T03:21:53.889Z,1024
2018-01-13T03:22:56.294Z,1024.1
2018-01-13T03:23:58.691Z,1024.1
2018-01-13T03:25:01.102Z,1024.1
2018-01-13T03:26:03.501Z,1024
2018-01-13T03:27:05.908Z,1024
2018-01-13T03:28:08.312Z,1024
2018-01-13T03:29:10.718Z,1024
2018-01-13T03:30:13.125Z,1024
2018-01-13T03:31:15.536Z,1024.1
2018-01-13T03:32:17.934Z,1024
2018-01-13T03:33:20.347Z,1024
2018-01-13T03:34:22.745Z,1024
2018-01-13T03:35:25.154Z,1024
2018-01-13T03:36:27.557Z,1024
2018-01-13T03:37:29.962Z,1023.9
2018-01-13T03:38:32.649Z,1024
2018-01-13T03:39:35.060Z,1024
2018-01-13T03:40:37.471Z,1024
2018-01-13T03:41:39.865Z,1024
2018-01-13T03:42:42.286Z,1023.9
2018-01-13T03:43:44.976Z,1023.9
2018-01-13T03:44:47.659Z,1024
2018-01-13T03:45:50.065Z,1024
2018-01-13T03:46:52.471Z,1024
2018-01-13T03:47:54.877Z,1023.9
2018-01-13T03:48:57.290Z,1024
2018-01-13T03:49:59.684Z,1024
2018-01-13T03:51:02.380Z,1024
2018-01-13T03:52:04.790Z,1024
2018-01-13T03:53:07.194Z,1024
2018-01-13T03:54:09.883Z,1024
2018-01-13T03:55:12.292Z,1024
2018-01-13T03:56:14.698Z,1023.9
2018-01-13T03:57:17.113Z,1023.9
2018-01-13T03:58:19.531Z,1024
2018-01-13T03:59:22.209Z,1024
2018-01-13T04:00:24.897Z,1023.9
2018-01-13T04:01:27.584Z,1023.9
2018-01-13T04:02:29.992Z,1023.9
2018-01-13T04:03:32.396Z,1023.9
2018-01-13T04:04:35.088Z,1024
2018-01-13T04:05:37.489Z,1024
2018-01-13T04:06:39.903Z,1024
2018-01-13T04:07:42.319Z,1024
2018-01-13T04:08:44.718Z,1024
2018-01-13T04:09:47.127Z,1024
2018-01-13T04:10:49.531Z,1023.9
2018-01-13T04:11:51.942Z,1023.9
2018-01-13T04:12:54.355Z,1023.9
2018-01-13T04:13:56.746Z,1024
2018-01-13T04:14:59.152Z,1024
2018-01-13T04:16:02.160Z,1023.9
2018-01-13T04:17:04.854Z,1023.9
2018-01-13T04:18:07.817Z,1023.9
2018-01-13T04:19:10.224Z,1023.9
2018-01-13T04:20:12.620Z,1024
2018-01-13T04:21:15.042Z,1024
2018-01-13T04:22:17.455Z,1024
2018-01-13T04:23:20.147Z,1024
2018-01-13T04:24:22.563Z,1024
2018-01-13T04:25:24.960Z,1024
2018-01-13T04:26:27.369Z,1024
2018-01-13T04:27:29.789Z,1024.1
2018-01-13T04:28:32.192Z,1024
2018-01-13T04:29:35.164Z,1024
2018-01-13T04:30:37.560Z,1024
2018-01-13T04:31:39.959Z,1024
2018-01-13T04:32:42.385Z,1024
2018-01-13T04:33:44.785Z,1024
2018-01-13T04:34:47.190Z,1024
2018-01-13T04:35:49.595Z,1024
2018-01-13T04:36:52.002Z,1024
2018-01-13T04:37:54.413Z,1024
2018-01-13T04:38:56.820Z,1024
2018-01-13T04:39:59.498Z,1024.1
2018-01-13T04:41:01.915Z,1024
2018-01-13T04:42:04.322Z,1024
2018-01-13T04:43:06.727Z,1024
2018-01-13T04:44:09.134Z,1024.1
2018-01-13T04:45:11.528Z,1024.1
2018-01-13T04:46:13.939Z,1024.1
2018-01-13T04:47:16.923Z,1024.1
2018-01-13T04:48:19.319Z,1024.1
2018-01-13T04:49:21.725Z,1024.1
2018-01-13T04:50:24.133Z,1024.1
2018-01-13T04:51:26.829Z,1024.1
2018-01-13T04:52:29.237Z,1024.1
2018-01-13T04:53:31.926Z,1024.1
2018-01-13T04:54:34.317Z,1024.1
2018-01-13T04:55:36.724Z,1024.2
2018-01-13T04:56:39.149Z,1024.1
2018-01-13T04:57:41.557Z,1024.2
2018-01-13T04:58:43.952Z,1024.1
2018-01-13T04:59:46.648Z,1024.2
2018-01-13T05:00:49.048Z,1024.2
2018-01-13T05:01:51.456Z,1024.2
2018-01-13T05:02:54.150Z,1024.1
2018-01-13T05:03:56.549Z,1024.2
2018-01-13T05:04:58.954Z,1024.2
2018-01-13T05:06:01.649Z,1024.1
2018-01-13T05:07:04.051Z,1024.2
2018-01-13T05:08:06.730Z,1024.2
2018-01-13T05:09:09.141Z,1024.2
2018-01-13T05:10:11.536Z,1024.1
2018-01-13T05:11:13.955Z,1024.2
2018-01-13T05:12:16.645Z,1024.2
2018-01-13T05:13:19.350Z,1024.2
2018-01-13T05:14:21.757Z,1024.2
2018-01-13T05:15:24.166Z,1024.2
2018-01-13T05:16:26.848Z,1024.2
2018-01-13T05:17:29.529Z,1024.3
2018-01-13T05:18:31.931Z,1024.3
2018-01-13T05:19:34.327Z,1024.3
2018-01-13T05:20:36.749Z,1024.3
2018-01-13T05:21:39.154Z,1024.3
2018-01-13T05:22:41.560Z,1024.3
2018-01-13T05:23:43.976Z,1024.3
2018-01-13T05:24:46.382Z,1024.3
2018-01-13T05:25:48.791Z,1024.3
2018-01-13T05:26:51.196Z,1024.4
2018-01-13T05:27:53.603Z,1024.3
2018-01-13T05:28:56.014Z,1024.4
2018-01-13T05:29:58.412Z,1024.4
2018-01-13T05:31:00.830Z,1024.3
2018-01-13T05:32:03.238Z,1024.3
2018-01-13T05:33:05.646Z,1024.3
2018-01-13T05:34:08.056Z,1024.3
2018-01-13T05:35:10.452Z,1024.4
2018-01-13T05:36:13.136Z,1024.4
2018-01-13T05:37:15.544Z,1024.3
2018-01-13T05:38:18.222Z,1024.3
2018-01-13T05:39:20.632Z,1024.4
2018-01-13T05:40:23.326Z,1024.4
2018-01-13T05:41:25.734Z,1024.4
2018-01-13T05:42:28.139Z,1024.4
2018-01-13T05:43:30.829Z,1024.3
2018-01-13T05:44:33.513Z,1024.3
2018-01-13T05:45:35.923Z,1024.3
2018-01-13T05:46:38.605Z,1024.3
2018-01-13T05:47:41.018Z,1024.3
2018-01-13T05:48:43.423Z,1024.3
2018-01-13T05:49:45.829Z,1024.3
2018-01-13T05:50:48.237Z,1024.3
2018-01-13T05:51:50.646Z,1024.3
2018-01-13T05:52:53.046Z,1024.2
2018-01-13T05:53:55.449Z,1024.3
2018-01-13T05:54:57.858Z,1024.3
2018-01-13T05:56:00.253Z,1024.3
2018-01-13T05:57:02.661Z,1024.3
2018-01-13T05:58:05.071Z,1024.2
2018-01-13T05:59:07.470Z,1024.3
2018-01-13T06:00:09.880Z,1024.2
2018-01-13T06:01:12.289Z,1024.3
2018-01-13T06:02:14.683Z,1024.2
2018-01-13T06:03:17.102Z,1024.2
2018-01-13T06:04:19.783Z,1024.2
2018-01-13T06:05:22.193Z,1024.2
2018-01-13T06:06:24.601Z,1024.2
2018-01-13T06:07:27.006Z,1024.2
2018-01-13T06:08:29.407Z,1024.2
2018-01-13T06:09:31.824Z,1024.3
2018-01-13T06:10:34.224Z,1024.3
2018-01-13T06:11:36.631Z,1024.2
2018-01-13T06:12:39.040Z,1024.3
2018-01-13T06:13:41.436Z,1024.2
2018-01-13T06:14:43.847Z,1024.2
2018-01-13T06:15:46.259Z,1024.2
2018-01-13T06:16:48.666Z,1024.2
2018-01-13T06:17:51.354Z,1024.3
2018-01-13T06:18:53.757Z,1024.3
2018-01-13T06:19:56.167Z,1024.2
2018-01-13T06:20:58.567Z,1024.2
2018-01-13T06:22:00.970Z,1024.2
2018-01-13T06:23:03.376Z,1024.2
2018-01-13T06:24:05.775Z,1024.2
2018-01-13T06:25:08.470Z,1024.2
2018-01-13T06:26:10.876Z,1024.2
2018-01-13T06:27:13.276Z,1024.2
2018-01-13T06:28:15.681Z,1024.2
2018-01-13T06:29:18.099Z,1024.2
2018-01-13T06:30:20.499Z,1024.3
2018-01-13T06:31:22.898Z,1024.2
2018-01-13T06:32:25.591Z,1024.2
2018-01-13T06:33:27.993Z,1024.2
2018-01-13T06:34:30.406Z,1024.3
2018-01-13T06:35:32.819Z,1024.3
2018-01-13T06:36:35.208Z,1024.2
2018-01-13T06:37:37.614Z,1024.2
2018-01-13T06:38:40.032Z,1024.2
2018-01-13T06:39:42.436Z,1024.2
2018-01-13T06:40:44.842Z,1024.2
2018-01-13T06:41:47.242Z,1024.2
2018-01-13T06:42:49.643Z,1024.2
2018-01-13T06:43:52.062Z,1024.3
2018-01-13T06:44:54.470Z,1024.3
2018-01-13T06:45:56.875Z,1024.3
2018-01-13T06:46:59.279Z,1024.3
2018-01-13T06:48:01.679Z,1024.3
2018-01-13T06:49:04.084Z,1024.2
2018-01-13T06:50:06.492Z,1024.3
2018-01-13T06:51:08.889Z,1024.3
2018-01-13T06:52:11.574Z,1024.2
2018-01-13T06:53:13.987Z,1024.2
2018-01-13T06:54:16.400Z,1024.3
2018-01-13T06:55:18.798Z,1024.2
2018-01-13T06:56:21.206Z,1024.2
2018-01-13T06:57:23.615Z,1024.2
2018-01-13T06:58:26.304Z,1024.2
2018-01-13T06:59:28.712Z,1024.2
2018-01-13T07:00:31.111Z,1024.1
2018-01-13T07:01:33.513Z,1024.2
2018-01-13T07:02:35.928Z,1024.2
2018-01-13T07:03:38.334Z,1024.2
2018-01-13T07:04:40.742Z,1024.2
2018-01-13T07:05:43.146Z,1024.2
2018-01-13T07:06:45.554Z,1024.2
2018-01-13T07:07:47.958Z,1024.2
2018-01-13T07:08:50.376Z,1024.2
2018-01-13T07:09:53.052Z,1024.2
2018-01-13T07:10:55.460Z,1024.3
2018-01-13T07:11:57.863Z,1024.2
2018-01-13T07:13:00.269Z,1024.2
2018-01-13T07:14:02.687Z,1024.2
2018-01-13T07:15:05.087Z,1024.2
2018-01-13T07:16:07.490Z,1024.2
2018-01-13T07:17:09.906Z,1024.2
2018-01-13T07:18:12.306Z,1024.2
2018-01-13T07:19:14.706Z,1024.3
2018-01-13T07:20:17.111Z,1024.2
2018-01-13T07:21:19.513Z,1024.3
2018-01-13T07:22:21.920Z,1024.3
2018-01-13T07:23:24.332Z,1024.3
2018-01-13T07:24:26.745Z,1024.3
2018-01-13T07:25:29.156Z,1024.2
2018-01-13T07:26:31.549Z,1024.3
2018-01-13T07:27:33.956Z,1024.2
2018-01-13T07:28:36.362Z,1024.2
2018-01-13T07:29:38.766Z,1024.2
2018-01-13T07:30:41.165Z,1024.2
2018-01-13T07:31:43.573Z,1024.2
2018-01-13T07:32:45.980Z,1024.2
2018-01-13T07:33:48.398Z,1024.2
2018-01-13T07:34:50.805Z,1024.2
2018-01-13T07:35:53.210Z,1024.2
2018-01-13T07:36:55.614Z,1024.3
2018-01-13T07:37:58.026Z,1024.3
2018-01-13T07:39:00.434Z,1024.2
2018-01-13T07:40:02.845Z,1024.2
2018-01-13T07:41:05.236Z,1024.2
2018-01-13T07:42:07.647Z,1024.3
2018-01-13T07:43:10.057Z,1024.2
2018-01-13T07:44:12.463Z,1024.2
2018-01-13T07:45:14.873Z,1024.3
2018-01-13T07:46:17.281Z,1024.3
2018-01-13T07:47:19.684Z,1024.3
2018-01-13T07:48:22.099Z,1024.3
2018-01-13T07:49:24.499Z,1024.3
2018-01-13T07:50:26.910Z,1024.3
2018-01-13T07:51:29.314Z,1024.4
2018-01-13T07:52:32.011Z,1024.4
2018-01-13T07:53:34.416Z,1024.4
2018-01-13T07:54:36.821Z,1024.4
2018-01-13T07:55:39.227Z,1024.4
2018-01-13T07:56:41.634Z,1024.4
2018-01-13T07:57:44.327Z,1024.4
2018-01-13T07:58:46.740Z,1024.4
2018-01-13T07:59:49.147Z,1024.4
2018-01-13T08:00:51.553Z,1024.4
2018-01-13T08:01:53.954Z,1024.4
2018-01-13T08:02:56.358Z,1024.4
2018-01-13T08:03:58.763Z,1024.4
2018-01-13T08:05:01.176Z,1024.4
2018-01-13T08:06:03.578Z,1024.4
2018-01-13T08:07:05.978Z,1024.4
2018-01-13T08:08:08.393Z,1024.4
2018-01-13T08:09:10.784Z,1024.4
2018-01-13T08:10:13.190Z,1024.4
2018-01-13T08:11:15.602Z,1024.4
2018-01-13T08:12:18.005Z,1024.4
2018-01-13T08:13:20.678Z,1024.4
2018-01-13T08:14:23.653Z,1024.4
2018-01-13T08:15:26.062Z,1024.4
2018-01-13T08:16:28.471Z,1024.4
2018-01-13T08:17:30.888Z,1024.5
2018-01-13T08:18:33.288Z,1024.4
2018-01-13T08:19:35.699Z,1024.4
2018-01-13T08:20:38.114Z,1024.5
2018-01-13T08:21:40.531Z,1024.5
2018-01-13T08:22:42.917Z,1024.5
2018-01-13T08:23:45.337Z,1024.5
2018-01-13T08:24:47.731Z,1024.5
2018-01-13T08:25:50.130Z,1024.4
2018-01-13T08:26:52.536Z,1024.4
2018-01-13T08:27:55.232Z,1024.4
2018-01-13T08:28:57.921Z,1024.5
2018-01-13T08:30:00.343Z,1024.5
2018-01-13T08:31:02.735Z,1024.5
2018-01-13T08:32:05.140Z,1024.6
2018-01-13T08:33:07.560Z,1024.5
2018-01-13T08:34:09.964Z,1024.5
2018-01-13T08:35:12.665Z,1024.6
2018-01-13T08:36:15.073Z,1024.6
2018-01-13T08:37:17.478Z,1024.6
2018-01-13T08:38:19.885Z,1024.5
2018-01-13T08:39:22.293Z,1024.6
2018-01-13T08:40:24.685Z,1024.5
2018-01-13T08:41:27.089Z,1024.5
2018-01-13T08:42:29.500Z,1024.5
2018-01-13T08:43:31.910Z,1024.6
2018-01-13T08:44:34.315Z,1024.6
2018-01-13T08:45:36.716Z,1024.6
2018-01-13T08:46:39.124Z,1024.6
2018-01-13T08:47:41.817Z,1024.6
2018-01-13T08:48:44.221Z,1024.6
2018-01-13T08:49:46.634Z,1024.6
2018-01-13T08:50:49.028Z,1024.6
2018-01-13T08:51:51.444Z,1024.6
2018-01-13T08:52:54.129Z,1024.5
2018-01-13T08:53:56.530Z,1024.5
2018-01-13T08:54:58.941Z,1024.6
2018-01-13T08:56:01.354Z,1024.6
2018-01-13T08:57:03.751Z,1024.6
2018-01-13T08:58:06.167Z,1024.6
2018-01-13T08:59:08.862Z,1024.5
2018-01-13T09:00:11.272Z,1024.5
2018-01-13T09:01:13.669Z,1024.6
2018-01-13T09:02:16.076Z,1024.6
2018-01-13T09:03:18.473Z,1024.6
2018-01-13T09:04:20.897Z,1024.6
2018-01-13T09:05:23.584Z,1024.6
2018-01-13T09:06:25.976Z,1024.6
2018-01-13T09:07:28.377Z,1024.6
2018-01-13T09:08:30.773Z,1024.6
2018-01-13T09:09:33.184Z,1024.7
2018-01-13T09:10:35.586Z,1024.6
2018-01-13T09:11:37.992Z,1024.6
2018-01-13T09:12:40.398Z,1024.6
2018-01-13T09:13:42.816Z,1024.6
2018-01-13T09:14:45.220Z,1024.6
2018-01-13T09:15:47.636Z,1024.6
2018-01-13T09:16:50.039Z,1024.6
2018-01-13T09:17:52.437Z,1024.6
2018-01-13T09:18:54.854Z,1024.7
2018-01-13T09:19:57.253Z,1024.7
2018-01-13T09:20:59.653Z,1024.7
2018-01-13T09:22:02.067Z,1024.7
2018-01-13T09:23:04.749Z,1024.7
2018-01-13T09:24:07.164Z,1024.7
2018-01-13T09:25:09.570Z,1024.7
2018-01-13T09:26:11.983Z,1024.7
2018-01-13T09:27:14.684Z,1024.8
2018-01-13T09:28:17.362Z,1024.8
2018-01-13T09:29:19.774Z,1024.8
2018-01-13T09:30:22.174Z,1024.8
2018-01-13T09:31:24.853Z,1024.8
2018-01-13T09:32:27.259Z,1024.8
2018-01-13T09:33:29.661Z,1024.8
2018-01-13T09:34:32.075Z,1024.8
2018-01-13T09:35:34.494Z,1024.8
2018-01-13T09:36:36.897Z,1024.8
2018-01-13T09:37:39.304Z,1024.8
2018-01-13T09:38:41.719Z,1024.8
2018-01-13T09:39:44.109Z,1024.8
2018-01-13T09:40:46.515Z,1024.7
2018-01-13T09:41:48.934Z,1024.7
2018-01-13T09:42:51.332Z,1024.7
2018-01-13T09:43:54.070Z,1024.7
2018-01-13T09:44:56.476Z,1024.8
2018-01-13T09:45:58.879Z,1024.8
2018-01-13T09:47:01.296Z,1024.8
2018-01-13T09:48:03.990Z,1024.8
2018-01-13T09:49:06.385Z,1024.8
2018-01-13T09:50:08.798Z,1024.8
2018-01-13T09:51:11.515Z,1024.7
2018-01-13T09:52:13.936Z,1024.7
2018-01-13T09:53:16.345Z,1024.8
2018-01-13T09:54:18.736Z,1024.7
2018-01-13T09:55:21.148Z,1024.7
2018-01-13T09:56:23.562Z,1024.7
2018-01-13T09:57:25.962Z,1024.7
2018-01-13T09:58:28.372Z,1024.7
2018-01-13T09:59:31.054Z,1024.8
2018-01-13T10:00:33.455Z,1024.8
2018-01-13T10:01:35.873Z,1024.7
2018-01-13T10:02:38.275Z,1024.8
2018-01-13T10:03:40.968Z,1024.8
2018-01-13T10:04:43.395Z,1024.8
2018-01-13T10:05:45.789Z,1024.8
2018-01-13T10:06:48.481Z,1024.7
2018-01-13T10:07:51.178Z,1024.7
2018-01-13T10:08:53.582Z,1024.8
2018-01-13T10:09:55.994Z,1024.7
2018-01-13T10:10:58.409Z,1024.8
2018-01-13T10:12:00.812Z,1024.7
2018-01-13T10:13:03.216Z,1024.8
2018-01-13T10:14:05.630Z,1024.7
2018-01-13T10:15:08.028Z,1024.7
2018-01-13T10:16:10.438Z,1024.7
2018-01-13T10:17:12.841Z,1024.7
2018-01-13T10:18:15.252Z,1024.7
2018-01-13T10:19:17.656Z,1024.7
2018-01-13T10:20:20.069Z,1024.7
2018-01-13T10:21:22.472Z,1024.7
2018-01-13T10:22:24.878Z,1024.7
2018-01-13T10:23:27.294Z,1024.7
2018-01-13T10:24:29.694Z,1024.6
2018-01-13T10:25:32.096Z,1024.6
2018-01-13T10:26:35.067Z,1024.6
2018-01-13T10:27:37.471Z,1024.6
2018-01-13T10:28:39.869Z,1024.6
2018-01-13T10:29:42.317Z,1024.6
2018-01-13T10:30:45.007Z,1024.6
2018-01-13T10:31:47.410Z,1024.6
2018-01-13T10:32:50.110Z,1024.6
2018-01-13T10:33:52.518Z,1024.6
2018-01-13T10:34:54.916Z,1024.6
2018-01-13T10:35:57.630Z,1024.5
2018-01-13T10:37:00.038Z,1024.6
2018-01-13T10:38:02.441Z,1024.5
2018-01-13T10:39:04.859Z,1024.5
2018-01-13T10:40:07.259Z,1024.5
2018-01-13T10:41:09.660Z,1024.5
2018-01-13T10:42:12.066Z,1024.5
2018-01-13T10:43:15.079Z,1024.5
2018-01-13T10:44:17.486Z,1024.5
2018-01-13T10:45:20.177Z,1024.5
2018-01-13T10:46:22.568Z,1024.5
2018-01-13T10:47:24.975Z,1024.5
2018-01-13T10:48:27.393Z,1024.5
2018-01-13T10:49:29.792Z,1024.5
2018-01-13T10:50:32.205Z,1024.5
2018-01-13T10:51:34.605Z,1024.6
2018-01-13T10:52:37.023Z,1024.6
2018-01-13T10:53:39.413Z,1024.5
2018-01-13T10:54:42.107Z,1024.5
2018-01-13T10:55:44.514Z,1024.6
2018-01-13T10:56:46.918Z,1024.6
2018-01-13T10:57:49.621Z,1024.6
2018-01-13T10:58:52.027Z,1024.5
2018-01-13T10:59:54.441Z,1024.6
2018-01-13T11:00:57.428Z,1024.5
2018-01-13T11:01:59.839Z,1024.5
2018-01-13T11:03:02.243Z,1024.4
2018-01-13T11:04:04.652Z,1024.5
2018-01-13T11:05:07.062Z,1024.5
2018-01-13T11:06:09.749Z,1024.5
2018-01-13T11:07:12.163Z,1024.5
2018-01-13T11:08:14.564Z,1024.5
2018-01-13T11:09:16.969Z,1024.5
2018-01-13T11:10:19.382Z,1024.5
2018-01-13T11:11:21.788Z,1024.5
2018-01-13T11:12:24.190Z,1024.5
2018-01-13T11:13:26.600Z,1024.5
2018-01-13T11:14:29.009Z,1024.6
2018-01-13T11:15:31.711Z,1024.5
2018-01-13T11:16:34.110Z,1024.4
2018-01-13T11:17:36.797Z,1024.4
2018-01-13T11:18:39.196Z,1024.4
2018-01-13T11:19:41.621Z,1024.5
2018-01-13T11:20:44.024Z,1024.5
2018-01-13T11:21:46.426Z,1024.5
2018-01-13T11:22:48.835Z,1024.5
2018-01-13T11:23:51.239Z,1024.4
2018-01-13T11:24:53.642Z,1024.4
2018-01-13T11:25:56.046Z,1024.5
2018-01-13T11:26:58.469Z,1024.4
2018-01-13T11:28:01.155Z,1024.3
2018-01-13T11:29:03.574Z,1024.4
2018-01-13T11:30:05.987Z,1024.4
2018-01-13T11:31:08.389Z,1024.5
2018-01-13T11:32:10.798Z,1024.4
2018-01-13T11:33:13.206Z,1024.5
2018-01-13T11:34:15.602Z,1024.4
2018-01-13T11:35:18.015Z,1024.4
2018-01-13T11:36:20.412Z,1024.4
2018-01-13T11:37:22.819Z,1024.4
2018-01-13T11:38:25.227Z,1024.4
2018-01-13T11:39:27.639Z,1024.4
2018-01-13T11:40:30.048Z,1024.4
2018-01-13T11:41:32.463Z,1024.4
2018-01-13T11:42:34.870Z,1024.4
2018-01-13T11:43:37.572Z,1024.4
2018-01-13T11:44:39.982Z,1024.4
2018-01-13T11:45:42.384Z,1024.4
2018-01-13T11:46:44.786Z,1024.4
2018-01-13T11:47:47.477Z,1024.4
2018-01-13T11:48:49.886Z,1024.3
2018-01-13T11:49:52.300Z,1024.4
2018-01-13T11:50:54.706Z,1024.4
2018-01-13T11:51:57.116Z,1024.4
2018-01-13T11:52:59.520Z,1024.4
2018-01-13T11:54:01.921Z,1024.4
2018-01-13T11:55:04.339Z,1024.4
2018-01-13T11:56:07.027Z,1024.4
2018-01-13T11:57:09.439Z,1024.4
2018-01-13T11:58:11.842Z,1024.5
2018-01-13T11:59:14.249Z,1024.4
2018-01-13T12:00:16.653Z,1024.4
2018-01-13T12:01:19.352Z,1024.3
2018-01-13T12:02:21.750Z,1024.3
2018-01-13T12:03:24.163Z,1024.3
2018-01-13T12:04:26.575Z,1024.2
2018-01-13T12:05:28.992Z,1024.3
2018-01-13T12:06:31.394Z,1024.3
2018-01-13T12:07:33.800Z,1024.3
2018-01-13T12:08:36.195Z,1024.2
2018-01-13T12:09:38.613Z,1024.3
2018-01-13T12:10:41.021Z,1024.3
2018-01-13T12:11:43.434Z,1024.3
2018-01-13T12:12:45.832Z,1024.3
2018-01-13T12:13:48.245Z,1024.2
2018-01-13T12:14:50.648Z,1024.3
2018-01-13T12:15:53.067Z,1024.3
2018-01-13T12:16:55.457Z,1024.3
2018-01-13T12:17:57.864Z,1024.3
2018-01-13T12:19:00.272Z,1024.3
2018-01-13T12:20:02.686Z,1024.2
2018-01-13T12:21:05.098Z,1024.3
2018-01-13T12:22:07.496Z,1024.3
2018-01-13T12:23:09.901Z,1024.3
2018-01-13T12:24:12.591Z,1024.3
2018-01-13T12:25:15.283Z,1024.2
2018-01-13T12:26:17.705Z,1024.2
2018-01-13T12:27:20.106Z,1024.2
2018-01-13T12:28:22.513Z,1024.2
2018-01-13T12:29:25.204Z,1024.2
2018-01-13T12:30:27.612Z,1024.2
2018-01-13T12:31:30.022Z,1024.2
2018-01-13T12:32:32.437Z,1024.1
2018-01-13T12:33:34.840Z,1024.2
2018-01-13T12:34:37.538Z,1024.2
2018-01-13T12:35:39.943Z,1024.2
2018-01-13T12:36:42.349Z,1024.1
2018-01-13T12:37:44.757Z,1024.2
2018-01-13T12:38:47.163Z,1024.1
2018-01-13T12:39:49.571Z,1024.2
2018-01-13T12:40:51.991Z,1024.1
2018-01-13T12:41:54.391Z,1024.1
2018-01-13T12:42:56.806Z,1024.1
2018-01-13T12:43:59.206Z,1024.1
2018-01-13T12:45:01.922Z,1024
2018-01-13T12:46:04.329Z,1024
2018-01-13T12:47:06.737Z,1024
2018-01-13T12:48:09.140Z,1024
2018-01-13T12:49:11.840Z,1024
2018-01-13T12:50:14.259Z,1024
2018-01-13T12:51:16.670Z,1023.9
2018-01-13T12:52:19.062Z,1024
2018-01-13T12:53:21.472Z,1023.9
2018-01-13T12:54:23.878Z,1023.9
2018-01-13T12:55:26.288Z,1023.9
2018-01-13T12:56:28.689Z,1024
2018-01-13T12:57:31.375Z,1023.9
2018-01-13T12:58:33.783Z,1024
2018-01-13T12:59:36.477Z,1023.9
2018-01-13T13:00:38.885Z,1024
2018-01-13T13:01:41.283Z,1023.9
2018-01-13T13:02:43.968Z,1023.9
2018-01-13T13:03:46.373Z,1023.9
2018-01-13T13:04:48.789Z,1023.9